Time;durP1;ratioP1;P1;durP2;ratioP2;P2;SDS_P1;SDS_P2;PMS_P1;PMS_P2;Temp;Humidity;BMP_temperature;BMP_pressure;BME280_temperature;BME280_humidity;BME280_pressure;Samples;Min_cycle;Max_cycle;Signal;HPM_P1;HPM_P2
2022/04/30 00:05:02;;;;;;;7.80;6.77;;;15.60;64.80;;;;;;21161575;28;20253;-69
2022/04/30 00:15:05;;;;;;;11.37;6.87;;;15.60;63.40;;;;;;21172208;28;20271;-69
2022/04/30 00:25:08;;;;;;;11.53;7.53;;;15.60;63.30;;;;;;21186597;28;20623;-69
2022/04/30 00:35:10;;;;;;;9.23;7.73;;;15.60;63.50;;;;;;21168044;27;20268;-68
2022/04/30 00:45:12;;;;;;;14.73;7.67;;;15.50;63.60;;;;;;21177132;28;20215;-68
2022/04/30 00:57:43;;;;;;;9.67;8.00;;;15.40;63.80;;;;;;20987282;28;20683;-68
2022/04/30 01:07:47;;;;;;;13.90;9.10;;;15.40;64.50;;;;;;20982828;28;20254;-67
2022/04/30 01:17:48;;;;;;;11.53;9.17;;;15.10;68.70;;;;;;20982005;28;20216;-71
2022/04/30 01:27:52;;;;;;;13.53;9.03;;;14.90;70.40;;;;;;20981140;28;20659;-70
2022/04/30 01:37:53;;;;;;;14.73;10.03;;;14.70;72.10;;;;;;20982001;28;20214;-70
2022/04/30 01:47:57;;;;;;;12.47;10.10;;;14.60;72.60;;;;;;20979087;28;20212;-69
2022/04/30 01:57:58;;;;;;;14.03;10.00;;;14.50;73.00;;;;;;20978559;28;20266;-72
2022/04/30 02:08:04;;;;;;;15.30;10.67;;;14.30;74.20;;;;;;20929264;28;20258;-72
2022/04/30 02:18:10;;;;;;;13.60;10.60;;;14.10;74.10;;;;;;20922801;28;20565;-70
2022/04/30 02:28:12;;;;;;;14.80;9.30;;;14.00;75.20;;;;;;20918553;28;20227;-70
2022/04/30 02:38:14;;;;;;;13.73;8.27;;;13.90;75.00;;;;;;20918815;28;20204;-70
2022/04/30 02:48:16;;;;;;;13.00;8.50;;;13.80;75.20;;;;;;20921206;28;20236;-70
2022/04/30 03:09:52;;;;;;;10.20;8.67;;;13.50;76.70;;;;;;20918654;28;20234;-72
2022/04/30 03:30:15;;;;;;;11.03;8.93;;;13.50;77.60;;;;;;20919563;28;20290;-69
2022/04/30 03:40:17;;;;;;;14.77;9.37;;;13.50;78.20;;;;;;20916477;28;20601;-72
2022/04/30 03:50:18;;;;;;;14.23;10.60;;;13.50;78.30;;;;;;20915064;28;20291;-71
2022/04/30 04:00:21;;;;;;;14.03;10.20;;;13.30;81.10;;;;;;20914499;28;20204;-73
2022/04/30 04:10:22;;;;;;;13.40;11.23;;;13.30;82.60;;;;;;20912916;28;20245;-70
2022/04/30 04:20:27;;;;;;;16.20;10.63;;;13.30;83.70;;;;;;20911492;28;20210;-73
2022/04/30 04:30:30;;;;;;;15.50;11.23;;;13.20;85.70;;;;;;20891383;28;20230;-71
2022/04/30 04:40:32;;;;;;;19.03;12.43;;;13.30;86.60;;;;;;20828184;28;20214;-69
2022/04/30 04:50:34;;;;;;;15.57;9.97;;;13.20;88.10;;;;;;20829610;28;20257;-71
2022/04/30 05:00:36;;;;;;;14.10;10.30;;;13.00;88.90;;;;;;20841800;28;20219;-71
2022/04/30 05:10:37;;;;;;;13.53;8.83;;;12.80;89.80;;;;;;20841589;28;20235;-70
2022/04/30 05:20:40;;;;;;;17.03;9.57;;;12.70;90.00;;;;;;20828554;28;20246;-70
2022/04/30 05:30:44;;;;;;;15.63;9.27;;;12.70;89.80;;;;;;20828161;28;20241;-71
2022/04/30 05:40:45;;;;;;;13.13;10.17;;;12.60;89.50;;;;;;20837501;28;20210;-72
2022/04/30 05:50:47;;;;;;;14.33;9.50;;;12.60;89.40;;;;;;20842691;28;20263;-71
2022/04/30 06:00:49;;;;;;;15.10;10.60;;;12.70;88.90;;;;;;20862782;28;20209;-67
2022/04/30 06:10:50;;;;;;;16.17;10.90;;;12.70;88.80;;;;;;20851029;28;20691;-70
2022/04/30 06:20:52;;;;;;;14.63;10.50;;;12.80;89.20;;;;;;20893305;28;20196;-66
2022/04/30 06:30:54;;;;;;;13.87;9.10;;;12.90;87.80;;;;;;20938723;28;20232;-67
2022/04/30 06:40:56;;;;;;;15.20;9.80;;;12.90;86.50;;;;;;20929080;28;20216;-69
2022/04/30 06:50:59;;;;;;;16.37;10.03;;;13.00;86.80;;;;;;20922606;28;20243;-71
2022/04/30 07:11:05;;;;;;;16.37;10.17;;;13.50;86.00;;;;;;20950242;28;20720;-72
2022/04/30 07:21:07;;;;;;;17.03;10.10;;;13.60;86.60;;;;;;20999840;28;20206;-67
2022/04/30 07:31:09;;;;;;;15.17;10.03;;;13.70;84.90;;;;;;20942671;28;20745;-67
2022/04/30 07:41:10;;;;;;;16.03;9.30;;;13.80;85.60;;;;;;20915666;28;20200;-69
2022/04/30 07:51:18;;;;;;;19.17;10.30;;;13.70;85.60;;;;;;20914794;28;20238;-69
2022/04/30 08:01:20;;;;;;;14.03;9.73;;;13.80;85.70;;;;;;20946255;28;20234;-64
2022/04/30 08:11:22;;;;;;;24.80;13.40;;;14.20;85.60;;;;;;20973868;28;20823;-66
2022/04/30 08:21:25;;;;;;;13.63;9.80;;;14.30;85.30;;;;;;20914622;28;20203;-68
2022/04/30 08:31:27;;;;;;;18.47;9.60;;;14.50;84.40;;;;;;20912647;28;20240;-64
2022/04/30 08:41:28;;;;;;;14.80;8.73;;;15.20;84.20;;;;;;20912538;28;20250;-71
2022/04/30 08:51:30;;;;;;;15.27;9.50;;;15.80;81.80;;;;;;20911565;28;20247;-64
2022/04/30 09:01:51;;;;;;;10.63;8.63;;;15.90;80.80;;;;;;20911334;28;20208;-67
2022/04/30 09:11:54;;;;;;;13.20;8.67;;;16.50;78.80;;;;;;20914795;28;20235;-68
2022/04/30 09:21:56;;;;;;;17.57;10.10;;;16.60;77.50;;;;;;20926343;28;20218;-72
2022/04/30 09:31:57;;;;;;;16.10;9.13;;;17.00;76.50;;;;;;20926765;28;20282;-72
2022/04/30 09:42:03;;;;;;;14.87;9.37;;;17.20;75.40;;;;;;20944239;28;20208;-70
2022/04/30 10:02:28;;;;;;;12.27;8.63;;;17.70;72.70;;;;;;20840159;28;20262;-67
2022/04/30 10:13:01;;;;;;;16.07;9.93;;;17.90;72.70;;;;;;20839021;28;20682;-68
2022/04/30 10:23:05;;;;;;;11.13;8.93;;;17.90;73.10;;;;;;20839852;28;20616;-70
2022/04/30 10:33:08;;;;;;;12.27;8.83;;;18.00;71.50;;;;;;20847020;28;20266;-64
2022/04/30 10:43:37;;;;;;;12.10;9.67;;;18.30;71.10;;;;;;20919316;28;20643;-64
2022/04/30 10:53:42;;;;;;;14.53;9.43;;;18.20;71.10;;;;;;20916469;28;20739;-68
2022/04/30 11:03:45;;;;;;;11.67;9.10;;;18.10;70.30;;;;;;20879133;28;20295;-67
2022/04/30 11:13:55;;;;;;;13.00;9.20;;;18.50;69.80;;;;;;20917549;28;20233;-65
2022/04/30 11:23:57;;;;;;;15.30;9.07;;;18.50;70.30;;;;;;20838288;28;20239;-71
2022/04/30 11:34:07;;;;;;;16.83;9.23;;;18.00;70.10;;;;;;20833517;28;20246;-71
2022/04/30 11:44:10;;;;;;;16.43;10.03;;;17.90;71.10;;;;;;20834378;28;20205;-72
2022/04/30 11:54:15;;;;;;;18.00;10.80;;;17.40;71.70;;;;;;20862239;28;20711;-71
2022/04/30 12:04:21;;;;;;;15.63;11.73;;;17.40;71.40;;;;;;20923743;28;20219;-80
2022/04/30 12:14:24;;;;;;;16.47;12.80;;;17.30;73.80;;;;;;20929916;28;20651;-73
2022/04/30 12:24:41;;;;;;;16.53;13.73;;;17.00;75.90;;;;;;20916726;28;20321;-75
2022/04/30 12:34:44;;;;;;;11.83;10.47;;;17.10;77.20;;;;;;20913281;28;20242;-71
2022/04/30 12:44:45;;;;;;;15.77;12.83;;;17.20;75.80;;;;;;20911477;28;20287;-70
2022/04/30 12:54:47;;;;;;;13.70;11.10;;;17.20;80.30;;;;;;20911495;28;20643;-70
2022/04/30 13:04:50;;;;;;;14.37;10.80;;;17.30;81.50;;;;;;20912098;28;20209;-71
2022/04/30 13:14:52;;;;;;;14.23;11.03;;;17.30;81.80;;;;;;20914154;28;20239;-71
2022/04/30 13:24:54;;;;;;;12.67;9.83;;;17.40;82.30;;;;;;20911417;28;20266;-68
2022/04/30 13:34:56;;;;;;;13.37;10.67;;;18.10;79.50;;;;;;20910756;28;20642;-69
2022/04/30 13:44:57;;;;;;;19.27;11.77;;;18.60;76.50;;;;;;20910054;28;20292;-69
2022/04/30 13:55:04;;;;;;;12.57;9.93;;;18.40;73.40;;;;;;20875024;28;20331;-71
2022/04/30 14:05:06;;;;;;;13.43;10.10;;;18.40;74.20;;;;;;20853918;28;20621;-72
2022/04/30 14:15:09;;;;;;;17.63;11.13;;;17.70;77.10;;;;;;20870608;28;20283;-75
2022/04/30 14:25:13;;;;;;;12.80;9.43;;;17.60;78.30;;;;;;20878292;28;20243;-69
2022/04/30 14:35:15;;;;;;;11.23;9.23;;;17.60;79.00;;;;;;20840096;28;20642;-69
2022/04/30 14:45:17;;;;;;;17.13;12.00;;;17.60;78.10;;;;;;20852153;28;20211;-71
2022/04/30 14:55:19;;;;;;;13.13;11.43;;;16.60;82.50;;;;;;20919345;28;20252;-69
2022/04/30 15:05:21;;;;;;;13.50;9.90;;;16.60;83.90;;;;;;20920396;28;20207;-66
2022/04/30 15:15:22;;;;;;;14.47;11.20;;;16.50;85.70;;;;;;20919459;28;20238;-67
2022/04/30 15:25:24;;;;;;;13.10;11.47;;;16.50;86.60;;;;;;20924702;28;20210;-67
2022/04/30 15:35:28;;;;;;;12.13;8.70;;;16.50;87.10;;;;;;20929462;28;20265;-66
2022/04/30 15:45:29;;;;;;;12.50;8.87;;;16.30;86.70;;;;;;20945241;28;20339;-66
2022/04/30 15:55:31;;;;;;;10.70;8.83;;;16.10;87.90;;;;;;20962718;28;20246;-65
2022/04/30 16:05:34;;;;;;;11.53;8.83;;;16.00;88.80;;;;;;20949981;28;20208;-64
2022/04/30 16:15:36;;;;;;;19.00;9.50;;;16.00;89.10;;;;;;20947507;28;20371;-65
2022/04/30 16:25:41;;;;;;;9.47;8.27;;;16.90;89.40;;;;;;20949433;28;20257;-66
2022/04/30 16:35:43;;;;;;;9.83;8.40;;;17.00;89.50;;;;;;20945027;28;20663;-66
2022/04/30 16:45:45;;;;;;;9.67;8.47;;;16.20;86.70;;;;;;20923585;28;20204;-67
2022/04/30 17:06:49;;;;;;;14.27;10.23;;;15.60;88.00;;;;;;21056176;27;21131;-68
2022/04/30 17:16:51;;;;;;;13.87;10.03;;;15.50;88.80;;;;;;21040379;28;20223;-66
2022/04/30 17:26:58;;;;;;;14.40;10.63;;;15.20;89.80;;;;;;21020960;28;20217;-66
2022/04/30 17:47:20;;;;;;;16.17;10.33;;;14.90;90.90;;;;;;20987606;28;20212;-65
2022/04/30 17:57:22;;;;;;;17.33;11.40;;;14.50;92.40;;;;;;20982982;28;20235;-66
2022/04/30 18:07:24;;;;;;;16.10;12.70;;;14.20;93.30;;;;;;20978155;28;20737;-66
2022/04/30 18:17:26;;;;;;;18.17;12.03;;;14.00;94.60;;;;;;20938957;28;20238;-62
2022/04/30 18:27:27;;;;;;;13.63;11.37;;;13.70;96.00;;;;;;20935298;28;20214;-62
2022/04/30 18:37:30;;;;;;;14.37;9.97;;;13.80;96.40;;;;;;20929488;28;20226;-65
2022/04/30 18:47:32;;;;;;;14.60;12.10;;;13.80;96.40;;;;;;20922706;28;20211;-67
2022/04/30 19:07:55;;;;;;;20.17;15.13;;;13.50;97.10;;;;;;20919038;28;20216;-68
2022/04/30 19:17:57;;;;;;;20.27;15.17;;;13.40;97.20;;;;;;20922753;28;20584;-65
2022/04/30 19:27:59;;;;;;;24.80;16.50;;;13.10;97.90;;;;;;20916822;28;20264;-66
2022/04/30 19:38:01;;;;;;;16.53;14.43;;;13.20;98.10;;;;;;20920128;28;20238;-65
2022/04/30 19:48:03;;;;;;;12.80;11.30;;;13.30;98.80;;;;;;20918660;28;20216;-67
2022/04/30 19:58:05;;;;;;;11.90;10.63;;;13.40;98.70;;;;;;20915926;28;20796;-66
2022/04/30 20:08:07;;;;;;;12.47;9.80;;;13.40;98.80;;;;;;20915649;28;20218;-66
2022/04/30 20:18:08;;;;;;;12.03;10.17;;;13.20;98.40;;;;;;20913348;28;20251;-67
2022/04/30 20:28:12;;;;;;;13.20;10.37;;;13.00;98.50;;;;;;20913927;28;20203;-66
2022/04/30 20:38:13;;;;;;;12.70;10.23;;;13.00;98.60;;;;;;20916844;28;20297;-68
2022/04/30 20:48:15;;;;;;;11.03;9.40;;;12.90;98.70;;;;;;20913781;28;20210;-65
2022/04/30 20:58:17;;;;;;;10.10;8.83;;;12.80;98.60;;;;;;20909374;28;20242;-67
2022/04/30 21:08:18;;;;;;;11.63;9.70;;;12.70;98.70;;;;;;20911937;28;20209;-71
2022/04/30 21:18:20;;;;;;;18.97;13.30;;;12.80;98.90;;;;;;20910813;28;20623;-70
2022/04/30 21:28:23;;;;;;;12.90;11.03;;;12.80;99.10;;;;;;20908861;28;20235;-70
2022/04/30 21:38:25;;;;;;;13.73;10.93;;;12.70;99.20;;;;;;20910562;28;20693;-69
2022/04/30 21:48:30;;;;;;;15.13;12.47;;;12.70;99.40;;;;;;20917531;28;20261;-68
2022/04/30 22:08:53;;;;;;;17.50;13.63;;;12.40;99.50;;;;;;20925176;28;20214;-69
2022/04/30 22:23:13;;;;;;;22.60;16.63;;;12.30;99.90;;;;;;21070901;28;20652;-67
2022/04/30 22:33:16;;;;;;;23.97;16.90;;;12.30;99.90;;;;;;21070939;28;20210;-67
2022/04/30 22:43:18;;;;;;;22.13;15.13;;;12.20;99.80;;;;;;21068439;28;20668;-68
2022/04/30 22:53:20;;;;;;;23.80;16.77;;;12.10;99.90;;;;;;21066041;28;20260;-67
2022/04/30 23:03:24;;;;;;;29.63;17.27;;;12.20;99.90;;;;;;21065389;28;20211;-66
2022/04/30 23:13:29;;;;;;;21.63;16.77;;;12.00;99.90;;;;;;21064794;28;20662;-68
2022/04/30 23:23:30;;;;;;;21.13;16.00;;;11.90;99.90;;;;;;21065887;28;20657;-64
2022/04/30 23:33:32;;;;;;;18.03;15.20;;;11.90;99.90;;;;;;21013629;28;20258;-68
2022/04/30 23:43:34;;;;;;;19.57;15.10;;;11.90;99.90;;;;;;21006725;28;20217;-66
2022/04/30 23:53:36;;;;;;;21.63;15.30;;;12.00;99.90;;;;;;20995977;28;20202;-66
